Terminal Aerodrome Forecast
Issued by NWS Grand Forks, ND

Home | Current Version | Previous Version | Text Only | Print | Product List | Glossary On
Versions: 1 2 3 4 5 6 7 8 9 10 11 12 13 14 15 16 17 18 19
810
FTUS43 KFGF 221734 AAA
TAFFAR
TAF AMD
KFAR 221734Z 2218/2318 17013KT P6SM SCT060 OVC080
     FM230100 VRB06KT P6SM SCT110
     FM231700 16008KT P6SM SCT130=

USA.gov is the U.S. government's official web portal to all federal, state and local government web resources and services.